Pagrindinis puslapis
METAR-TAF:

METAR-TAF

Oro uostai :

Jelivarė, Švedija

platuma: 67-09N, ilguma: 020-39E, Aukštis: 359 m

Dabartinis oras

Ataskaita buvo paskelbta 1 valandą ir 18 minutes, ne 12:50 UTC
Vėjas 7 kt iš Vakarų, svyruoja nuo Pietų ir Šiaurės Vakarų
Temperatūra 25°C
Drėgmė 26%
Slėgis 1024 hPa
Matomumas 10 km arba daugiau
nėra debesų žemiau 1500 m ir nėra kamuolinių lietaus debesų

METAR: ESNG 011250Z 26007KT 180V320 CAVOK 25/04 Q1024

Laikas: 16:08 (14:08 UTC)

Prognozė

Ataskaita buvo paskelbta 23 valandos ir 38 minutes, ne 14:30 UTC
Prognozė galioja nuo 31 metu 15 UTC su 31 metu 17 UTC
Vėjas 8 kt iš Šiaurės/Šiaurės Vakarų
Matomumas 10 km arba daugiau
nėra debesų žemiau 1500 m ir nėra kamuolinių lietaus debesų

TAF: ESNG 311430Z 3115/3117 33008KT CAVOK

Orai ataskaitas ir orų prognozės (METAR, TAF).

turimą stotys yra geltonos ir raudonos taškus žemėlapyje.

Perkelti pele per norėdami pamatyti stoties vardą.

Tada spustelėkite, norėdami matyti oro stebėjimo ir prognozės.

Norėdami pakeisti žemėlapį: spustelėkite ant žalios mygtukų su juodo kryžiaus žemyn,; žalią mygtuką su brūkšneliu, jei norite nutolinti; arba žalių rodyklių gretimoms žemėlapius.


METAR-TAF: